• Join FlightAware (Why Join?)
  • Login
  • US Flag 
05:10PM EDT


 

Airport Tracker/Info


-or-


 

Live Flight TrackerFlight Track Log ✈ SWA3587 ✈ 14-Jul-2013 ✈ KPHX - KDTW

Flight Track Log - Related Links

Times and Time Zones

All times are in EDT time to prevent confusion due to time zone crossing. See the SWA3587 flight status page for this flight to view local times or setup timezone preferences in your user account.

Time Position Orientation Groundspeed Altitude Reporting Facility
EDT Latitude Longitude Course Direction KTS MPH feet Rate Location/Type
08:50PM 33.4333 -112.0667 69° East 176 203 3,000  Level Phoenix TRACON
08:51PM 33.4333 -112.1333 270° West 214 246 5,600 2,820 Climbing Phoenix TRACON
08:52PM 33.4667 -112.1833 309° West 228 262 9,000 3,000 Climbing Phoenix TRACON
08:53PM 33.5500 -112.1667 North 272 313 11,900 2,640 Climbing Phoenix TRACON
08:54PM 33.6339 -112.1144 27° Northeast 311 358 15,300 2,340 Climbing Albuquerque Center
08:55PM 33.6831 -111.2674 69° East  Level FlightAware Approximate
08:55PM 33.7186 -112.0553 30° Northeast 355 409 17,500  Level Albuquerque Center
08:56PM 33.8272 -111.9778 31° Northeast 390 449 20,800 2,820 Climbing Albuquerque Center
08:57PM 33.9397 -111.9169 24° Northeast 415 478 23,400 2,340 Climbing Albuquerque Center
08:58PM 34.0542 -111.8736 17° North 430 495 25,700 2,100 Climbing Albuquerque Center
08:59PM 34.1764 -111.8553 North 441 507 27,800 1,560 Climbing Albuquerque Center
09:00PM 34.3075 -111.8328 North 455 524 29,000 540 Climbing Albuquerque Center
09:01PM 34.4353 -111.8089 North 461 531 29,000 720 Level Albuquerque Center
09:02PM 34.5614 -111.7850 North 460 529 30,500 1,500 Climbing Albuquerque Center
09:03PM 34.6911 -111.7614 North 466 536 32,100 1,680 Climbing Albuquerque Center
09:04PM 34.8311 -111.7344 North 471 542 34,000 900 Climbing Albuquerque Center
09:06PM 34.9494 -111.7114 North 469 540 34,000  Level Albuquerque Center
09:07PM 35.0781 -111.6883 North 467 537 34,000  Level Albuquerque Center
09:08PM 35.2028 -111.6508 14° North 464 534 34,000 360 Level Albuquerque Center
09:09PM 35.3319 -111.5978 19° North 468 539 34,800 480 Climbing Albuquerque Center
09:10PM 35.4517 -111.5481 19° North 462 532 35,000 60 Climbing Albuquerque Center
09:11PM 35.5964 -111.4872 19° North 461 531 35,000  Level Albuquerque Center
09:12PM 35.7261 -111.4344 18° North 460 529 35,000  Level Albuquerque Center
09:13PM 35.8444 -111.3847 19° North 464 534 35,000  Level Albuquerque Center
09:13PM 35.9031 -111.3606 18° North 465 535 35,000  Level Denver Center
09:14PM 36.0506 -111.2989 19° North 467 537 35,000  Level Denver Center
09:15PM 36.1428 -111.1961 42° Northeast 473 544 35,000 600 Level Denver Center
09:16PM 36.1825 -111.0456 72° East 465 535 36,300 960 Climbing Denver Center
09:17PM 36.2464 -110.9125 59° Northeast 460 529 37,000 300 Climbing Denver Center
09:18PM 36.3175 -110.7833 56° Northeast 457 526 37,000 180 Level Denver Center
09:19PM 36.3881 -110.6544 56° Northeast 454 522 37,400 960 Climbing Denver Center
09:20PM 36.4756 -110.4969 55° Northeast 460 529 39,000 1,320 Climbing Denver Center
09:22PM 36.5336 -110.3547 63° Northeast 465 535 40,200 960 Climbing Denver Center
09:23PM 36.5700 -110.2069 73° East 456 525 41,000 360 Climbing Denver Center
09:24PM 36.6069 -110.0542 73° East 458 527 41,000  Level Denver Center
09:25PM 36.6422 -109.9114 73° East 452 520 41,000  Level Denver Center
09:26PM 36.6831 -109.7444 73° East 451 519 41,000  Level Denver Center
09:27PM 36.7169 -109.6028 73° East 446 513 41,000  Level Denver Center
09:28PM 36.7569 -109.4364 73° East 448 516 41,000  Level Denver Center
09:29PM 36.7903 -109.2944 74° East 444 511 41,000  Level Denver Center
09:30PM 36.8306 -109.1281 73° East 446 513 41,000  Level Denver Center
09:31PM 36.8644 -108.9850 73° East 447 514 41,000  Level Denver Center
09:32PM 36.8978 -108.8425 74° East 448 516 41,000  Level Denver Center
09:33PM 36.9364 -108.6753 74° East 448 516 41,000  Level Denver Center
09:34PM 36.9694 -108.5325 74° East 447 514 41,000  Level Denver Center
09:35PM 37.0089 -108.3636 74° East 450 518 41,000  Level Denver Center
09:36PM 37.0411 -108.2192 74° East 450 518 41,000  Level Denver Center
09:37PM 37.0736 -108.0769 74° East 446 513 41,000  Level Denver Center
09:38PM 37.1117 -107.9083 74° East 449 517 41,000  Level Denver Center
09:39PM 37.1436 -107.7653 74° East 446 513 41,000  Level Denver Center
09:40PM 37.1808 -107.5969 74° East 448 516 41,000  Level Denver Center
09:41PM 37.2122 -107.4575 74° East 437 503 41,000  Level Denver Center
09:42PM 37.2489 -107.2914 74° East 441 507 41,000  Level Denver Center
09:43PM 37.2800 -107.1497 75° East 439 505 41,000  Level Denver Center
09:44PM 37.3158 -106.9831 75° East 442 509 41,000  Level Denver Center
09:45PM 37.3469 -106.8408 75° East 442 509 41,000  Level Denver Center
09:46PM 37.3781 -106.6986 75° East 443 510 41,000  Level Denver Center
09:47PM 37.4119 -106.5306 76° East 443 510 41,000  Level Denver Center
09:48PM 37.4717 -106.4031 59° Northeast 442 509 41,000  Level Denver Center
09:49PM 37.5550 -106.2642 53° Northeast 443 510 41,000  Level Denver Center
09:51PM 37.6093 -106.0945 75° East  Level Estimated
09:51PM 37.6961 -106.0122 75° East 441 507 41,000  Level Denver Center
09:52PM 37.7722 -105.8986 50° Northeast 442 509 41,000  Level Denver Center
09:53PM 37.8617 -105.7661 49° Northeast 443 510 41,000  Level Denver Center
09:54PM 37.9389 -105.6517 49° Northeast 444 511 41,000  Level Denver Center
09:55PM 38.0278 -105.5161 50° Northeast 445 512 41,000  Level Denver Center
09:57PM 38.0964 -105.3956 54° Northeast 441 507 41,000  Level Denver Center
09:58PM 38.1764 -105.2539 54° Northeast 440 506 41,000  Level Denver Center
09:59PM 38.2439 -105.1353 54° Northeast 434 499 41,000  Level Denver Center
10:00PM 38.3206 -104.9919 56° Northeast 436 502 41,000  Level Denver Center
10:01PM 38.3767 -104.8706 59° Northeast 432 497 41,000  Level Denver Center
10:02PM 38.4367 -104.7419 59° Northeast 427 491 41,000  Level Denver Center
10:03PM 38.4981 -104.6125 59° Northeast 428 493 41,000  Level Denver Center
10:04PM 38.5656 -104.4572 61° Northeast 420 483 41,000  Level Denver Center
10:05PM 38.6264 -104.3283 59° Northeast 421 484 41,000  Level Denver Center
10:06PM 38.6878 -104.2028 58° Northeast 421 484 41,000  Level Denver Center
10:07PM 38.7564 -104.0642 58° Northeast 420 483 41,000  Level Denver Center
10:08PM 38.8156 -103.9403 58° Northeast 422 486 41,000  Level Denver Center
10:09PM 38.8639 -103.8153 64° Northeast 424 488 41,000  Level Denver Center
10:10PM 38.9283 -103.6528 63° Northeast 426 490 41,000  Level Denver Center
10:11PM 38.9786 -103.5169 65° Northeast 424 488 41,000  Level Denver Center
10:12PM 39.0053 -103.3714 77° East 421 484 41,000  Level Denver Center
10:13PM 39.0325 -103.2256 76° East 421 484 41,000  Level Denver Center
10:14PM 39.0594 -103.0786 77° East 425 489 41,000  Level Denver Center
10:15PM 39.0858 -102.9317 77° East 424 488 41,000  Level Denver Center
10:16PM 39.1186 -102.7542 77° East 426 490 41,000  Level Denver Center
10:17PM 39.1439 -102.6111 77° East 426 490 41,000  Level Denver Center
10:18PM 39.1689 -102.4686 77° East 426 490 41,000  Level Denver Center
10:19PM 39.1986 -102.3025 77° East 427 491 41,000  Level Denver Center
10:20PM 39.2233 -102.1594 77° East 427 491 41,000  Level Denver Center
10:21PM 39.2522 -101.9925 77° East 428 493 41,000  Level Denver Center
10:22PM 39.2767 -101.8497 77° East 428 493 41,000  Level Denver Center
10:23PM 39.3036 -101.6942 77° East 428 493 41,000  Level Denver Center
10:24PM 39.3325 -101.5283 77° East 425 489 41,000  Level Denver Center
10:25PM 39.3550 -101.3872 78° East 422 486 41,000  Level Denver Center
10:26PM 39.3794 -101.2464 77° East 422 486 41,000  Level Denver Center
10:27PM 39.4058 -101.0828 78° East 419 482 41,000  Level Denver Center
10:28PM 39.4281 -100.9428 78° East 417 480 41,000  Level Denver Center
10:30PM 39.4547 -100.7806 78° East 415 478 41,000  Level Denver Center
10:31PM 39.4769 -100.6433 78° East 410 472 41,000  Level Denver Center
10:32PM 39.5022 -100.4839 78° East 407 468 41,000  Level Denver Center
10:33PM 39.5239 -100.3500 78° East 401 461 41,000  Level Denver Center
10:34PM 39.5481 -100.1903 79° East 404 465 41,000  Level Denver Center
10:35PM 39.5692 -100.0564 78° East 399 459 41,000  Level Denver Center
10:36PM 39.5911 -99.9214 78° East 401 461 41,000  Level Denver Center
10:37PM 39.6164 -99.7453 79° East 412 474 41,000  Level Denver Center
10:38PM 39.6431 -99.5728 79° East 407 468 41,000  Level Denver Center
10:39PM 39.6653 -99.4272 79° East 410 472 41,000  Level Denver Center
10:40PM 39.6861 -99.2842 79° East 405 466 41,000  Level Denver Center
10:41PM 39.7072 -99.1394 79° East 407 468 41,000  Level Denver Center
10:42PM 39.7281 -98.9942 79° East 409 471 41,000  Level Denver Center
10:43PM 39.7536 -98.8197 79° East 411 473 41,000  Level Denver Center
10:44PM 39.7700 -98.7050 79° East 411 473 41,000  Level Minneapolis Center
10:45PM 39.7900 -98.5594 80° East 411 473 41,000  Level Minneapolis Center
10:46PM 39.8100 -98.4144 80° East 410 472 41,000  Level Minneapolis Center
10:47PM 39.8350 -98.2400 79° East 410 472 41,000  Level Minneapolis Center
10:48PM 39.8547 -98.0936 80° East 411 473 41,000  Level Minneapolis Center
10:49PM 39.8703 -97.9781 80° East 409 471 41,000  Level Minneapolis Center
10:50PM 39.8933 -97.8056 80° East 405 466 41,000  Level Minneapolis Center
10:51PM 39.9128 -97.6628 80° East 403 464 41,000  Level Minneapolis Center
10:52PM 39.9325 -97.5189 80° East 403 464 41,000  Level Minneapolis Center
10:53PM 39.9503 -97.3750 81° East 404 465 41,000  Level Minneapolis Center
10:54PM 39.9675 -97.2375 81° East 404 465 41,000  Level Minneapolis Center
10:55PM 39.9897 -97.0669 80° East 400 460 41,000 -60 Level Minneapolis Center
10:56PM 40.0083 -96.9217 80° East 405 466 40,900 -600 Descending Minneapolis Center
10:57PM 40.0272 -96.7756 80° East 408 470 39,900 -840 Descending Minneapolis Center
10:59PM 40.0444 -96.6286 81° East 411 473 39,100 -420 Descending Minneapolis Center
11:00PM 40.0661 -96.4542 81° East 409 471 39,000 -60 Descending Minneapolis Center
11:01PM 40.0875 -96.2811 81° East 405 466 39,000  Level Minneapolis Center
11:01PM 40.0978 -96.2050 80° East 405 466 39,000  Level Kansas City Center
11:02PM 40.1156 -96.0497 81° East 409 471 39,000  Level Kansas City Center
11:03PM 40.1333 -95.9108 80° East 407 468 39,000  Level Kansas City Center
11:04PM 40.1389 -95.8425 84° East 410 472 39,000  Level Minneapolis Center
11:05PM 40.1592 -95.6700 81° East 407 468 39,000  Level Minneapolis Center
11:06PM 40.1761 -95.5267 81° East 404 465 39,000  Level Minneapolis Center
11:07PM 40.1917 -95.3817 82° East 404 465 39,000  Level Minneapolis Center
11:08PM 40.2081 -95.2389 81° East 401 461 39,000  Level Minneapolis Center
11:09PM 40.2228 -95.0936 82° East 403 464 39,000  Level Minneapolis Center
11:10PM 40.2397 -94.9489 81° East 404 465 39,000  Level Minneapolis Center
11:11PM 40.2547 -94.8033 82° East 405 466 39,000  Level Minneapolis Center
11:12PM 40.2711 -94.6569 82° East 407 468 39,000  Level Minneapolis Center
11:13PM 40.2886 -94.4900 82° East 406 467 39,000  Level Minneapolis Center
11:14PM 40.3028 -94.3450 83° East 406 467 39,000  Level Minneapolis Center
11:15PM 40.3181 -94.2003 82° East 405 466 39,000  Level Minneapolis Center
11:16PM 40.3319 -94.0553 83° East 405 466 39,000  Level Minneapolis Center
11:17PM 40.3472 -93.9097 82° East 406 467 39,000  Level Minneapolis Center
11:19PM 40.3669 -93.7042 83° East 408 470 39,000  Level Kansas City Center
11:20PM 40.3814 -93.5578 83° East 408 470 39,000  Level Kansas City Center
11:21PM 40.3953 -93.4103 83° East 411 473 39,000  Level Kansas City Center
11:22PM 40.4122 -93.2322 83° East 413 475 39,000  Level Kansas City Center
11:23PM 40.4264 -93.0839 83° East 413 475 39,000  Level Kansas City Center
11:24PM 40.4408 -92.9358 83° East 410 472 39,000  Level Kansas City Center
11:25PM 40.4542 -92.7922 83° East 412 474 39,000  Level Kansas City Center
11:26PM 40.4683 -92.6528 82° East 417 480 39,000  Level Kansas City Center
11:27PM 40.4808 -92.4986 84° East 423 487 39,000  Level Kansas City Center
11:28PM 40.4942 -92.3256 84° East 418 481 39,000  Level Kansas City Center
11:29PM 40.5069 -92.1747 84° East 417 480 39,000  Level Kansas City Center
11:30PM 40.5183 -92.0247 84° East 417 480 39,000  Level Kansas City Center
11:31PM 40.5478 -91.8775 75° East 421 484 39,000  Level Kansas City Center
11:32PM 40.5844 -91.7331 71° East 422 486 39,000  Level Kansas City Center
11:33PM 40.6272 -91.5578 72° East 424 488 39,000  Level Chicago Center
11:34PM 40.6622 -91.4131 72° East 419 482 39,000  Level Chicago Center
11:35PM 40.6947 -91.2797 72° East 426 490 39,000  Level Chicago Center
11:36PM 40.7389 -91.1017 72° East 427 491 39,000  Level Chicago Center
11:37PM 40.7750 -90.9519 72° East 428 493 39,000  Level Chicago Center
11:38PM 40.8100 -90.8022 73° East 427 491 39,000  Level Chicago Center
11:39PM 40.8447 -90.6517 73° East 428 493 39,000  Level Chicago Center
11:40PM 40.8817 -90.5025 72° East 426 490 39,000  Level Chicago Center
11:41PM 40.9164 -90.3511 73° East 428 493 39,000  Level Chicago Center
11:42PM 40.9503 -90.2100 72° East 426 490 39,000  Level Chicago Center
11:43PM 40.9847 -90.0606 73° East 427 491 39,000  Level Chicago Center
11:44PM 41.0225 -89.8939 73° East 430 495 39,000  Level Chicago Center
11:45PM 41.0569 -89.7392 74° East 434 499 39,000  Level Chicago Center
11:46PM 41.0917 -89.5853 73° East 435 501 39,000  Level Chicago Center
11:47PM 41.1256 -89.4317 74° East 433 498 39,000  Level Chicago Center
11:48PM 41.1592 -89.2769 74° East 438 504 39,000  Level Chicago Center
11:49PM 41.1953 -89.1194 73° East 433 498 39,000  Level Chicago Center
11:50PM 41.2244 -88.9667 76° East 432 497 39,000  Level Chicago Center
11:51PM 41.2600 -88.8122 73° East 437 503 39,000  Level Chicago Center
11:52PM 41.2911 -88.6628 74° East 425 489 39,000  Level Chicago Center
11:53PM 41.3244 -88.5089 74° East 432 497 39,000  Level Chicago Center
11:54PM 41.3572 -88.3564 74° East 432 497 39,000  Level Chicago Center
11:55PM 41.3922 -88.1939 74° East 429 494 39,000  Level Chicago Center
11:56PM 41.4267 -88.0383 73° East 438 504 39,000  Level Chicago Center
11:57PM 41.4600 -87.8664 75° East 442 509 39,000  Level Chicago Center
11:58PM 41.4919 -87.7122 74° East 438 504 39,000  Level Chicago Center
11:59PM 41.5236 -87.5578 75° East 436 502 39,000  Level Chicago Center
12:00AM 41.5542 -87.4025 75° East 436 502 39,000  Level Chicago Center
12:01AM 41.5861 -87.2478 75° East 436 502 39,000  Level Chicago Center
12:02AM 41.6172 -87.0925 75° East 436 502 39,000  Level Chicago Center
12:03AM 41.6472 -86.9378 75° East 434 499 39,000 -360 Level Chicago Center
12:04AM 41.6789 -86.7833 75° East 433 498 38,300 -900 Descending Chicago Center
12:05AM 41.7139 -86.5994 76° East 437 503 37,200 -1,020 Descending Chicago Center
12:06AM 41.7458 -86.4392 75° East 444 511 36,300 -960 Descending Chicago Center
12:07AM 41.7761 -86.2764 76° East 451 519 35,300 -960 Descending Chicago Center
12:08AM 41.8078 -86.1131 75° East 452 520 34,400 -1,080 Descending Chicago Center
12:09AM 41.8400 -85.9494 75° East 452 520 33,200 -1,380 Descending Chicago Center
12:10AM 41.8717 -85.7892 75° East 447 514 31,700 -1,560 Descending Chicago Center
12:11AM 41.9025 -85.6303 75° East 437 503 30,100 -1,560 Descending Chicago Center
12:12AM 41.9325 -85.4744 75° East 428 493 28,600 -1,560 Descending Chicago Center
12:13AM 41.9614 -85.3225 76° East 419 482 27,000 -1,560 Descending Chicago Center
12:14AM 41.9875 -85.1725 77° East 411 473 25,500 -1,440 Descending Chicago Center
12:15AM 42.0106 -85.0469 76° East 405 466 24,200 -1,560 Descending Chicago Center
12:16AM 42.0403 -84.8775 77° East 391 450 22,400 -1,680 Descending Chicago Center
12:17AM 42.0567 -84.7419 81° East 373 429 20,900 -1,440 Descending Chicago Center
12:18AM 42.0719 -84.6067 81° East 367 422 19,500 -1,620 Descending Chicago Center
12:19AM 42.0872 -84.4764 81° East 358 412 17,700 -1,800 Descending Chicago Center
12:20AM 42.1031 -84.3486 80° East 349 402 15,900 -1,980 Descending Chicago Center
12:21AM 42.1114 -84.2697 82° East 343 395 14,600 -1,440 Descending Cleveland Center
12:22AM 42.1381 -84.1508 73° East 332 382 13,600 -1,380 Descending Cleveland Center
12:23AM 42.1625 -84.0344 74° East 323 372 11,900 -1,740 Descending Cleveland Center
12:24AM 42.1886 -83.9211 73° East 315 362 10,200 -1,380 Descending Cleveland Center
12:25AM 42.2150 -83.8047 73° East 280 322 9,000 -1,380 Descending Cleveland Center
12:26AM 42.2386 -83.7019 73° East 280 322 7,300 -1,560 Descending Cleveland Center
12:27AM 42.2600 -83.6019 74° East 282 325 5,900 -1,440 Descending Cleveland Center
12:28AM 42.2814 -83.5019 74° East 266 306 4,400 -1,200 Descending Cleveland Center
12:29AM 42.3208 -83.4225 56° Northeast 239 275 3,500 -900 Descending Cleveland Center
12:31AM 42.2124 -83.3534 90° East  Level Estimated
12:38AM 42.2124 -83.3534 90° East  Level Estimated
12:39AM 42.2124 -83.3534 90° East  Level Estimated
12:40AM 42.2124 -83.3534 90° East  Level Estimated
12:41AM 42.2124 -83.3534 90° East  Level Estimated
12:42AM 42.2124 -83.3534 90° East  Level Estimated
12:43AM 42.2124 -83.3534 90° East  Level Estimated
12:44AM 42.2124 -83.3534 90° East  Level Estimated
12:45AM 42.2124 -83.3534 90° East  Level Estimated
12:46AM 42.2124 -83.3534 90° East  Level Estimated
12:47AM 42.2124 -83.3534 90° East  Level Estimated